sensor_id;sensor_type;location;lat;lon;timestamp;temperature;humidity
10848;DHT22;5477;48.806;9.154;2023-10-09T00:00:07;12.80;99.90
10848;DHT22;5477;48.806;9.154;2023-10-09T00:03:04;12.80;99.90
10848;DHT22;5477;48.806;9.154;2023-10-09T00:05:34;12.70;99.90
10848;DHT22;5477;48.806;9.154;2023-10-09T00:08:15;12.80;99.90
10848;DHT22;5477;48.806;9.154;2023-10-09T00:10:48;12.80;99.90
10848;DHT22;5477;48.806;9.154;2023-10-09T00:13:21;12.80;99.90
10848;DHT22;5477;48.806;9.154;2023-10-09T00:15:56;12.80;99.90
10848;DHT22;5477;48.806;9.154;2023-10-09T00:18:29;12.80;99.90
10848;DHT22;5477;48.806;9.154;2023-10-09T00:21:00;12.70;99.90
10848;DHT22;5477;48.806;9.154;2023-10-09T00:23:38;12.80;99.90
10848;DHT22;5477;48.806;9.154;2023-10-09T00:26:06;12.80;99.90
10848;DHT22;5477;48.806;9.154;2023-10-09T00:28:46;12.80;99.90
10848;DHT22;5477;48.806;9.154;2023-10-09T00:31:14;12.80;99.90
10848;DHT22;5477;48.806;9.154;2023-10-09T00:33:44;12.80;99.90
10848;DHT22;5477;48.806;9.154;2023-10-09T00:36:12;12.70;99.90
10848;DHT22;5477;48.806;9.154;2023-10-09T00:38:45;12.70;99.90
10848;DHT22;5477;48.806;9.154;2023-10-09T00:41:16;12.70;99.90
10848;DHT22;5477;48.806;9.154;2023-10-09T00:43:48;12.70;99.90
10848;DHT22;5477;48.806;9.154;2023-10-09T00:46:18;12.80;99.90
10848;DHT22;5477;48.806;9.154;2023-10-09T00:48:57;12.70;99.90
10848;DHT22;5477;48.806;9.154;2023-10-09T00:51:29;12.70;99.90
10848;DHT22;5477;48.806;9.154;2023-10-09T00:54:04;12.60;99.90
10848;DHT22;5477;48.806;9.154;2023-10-09T00:56:41;12.70;99.90
10848;DHT22;5477;48.806;9.154;2023-10-09T00:59:15;12.70;99.90
10848;DHT22;5477;48.806;9.154;2023-10-09T01:01:47;12.60;99.90
10848;DHT22;5477;48.806;9.154;2023-10-09T01:04:25;12.60;99.90
10848;DHT22;5477;48.806;9.154;2023-10-09T01:06:56;12.60;99.90
10848;DHT22;5477;48.806;9.154;2023-10-09T01:09:35;12.60;99.90
10848;DHT22;5477;48.806;9.154;2023-10-09T01:12:05;12.60;99.90
10848;DHT22;5477;48.806;9.154;2023-10-09T01:14:34;12.60;99.90
10848;DHT22;5477;48.806;9.154;2023-10-09T01:17:07;12.70;99.90
10848;DHT22;5477;48.806;9.154;2023-10-09T01:19:38;12.70;99.90
10848;DHT22;5477;48.806;9.154;2023-10-09T01:22:09;12.70;99.90
10848;DHT22;5477;48.806;9.154;2023-10-09T01:24:42;12.70;99.90
10848;DHT22;5477;48.806;9.154;2023-10-09T01:27:11;12.70;99.90
10848;DHT22;5477;48.806;9.154;2023-10-09T01:29:43;12.80;99.90
10848;DHT22;5477;48.806;9.154;2023-10-09T01:32:13;12.70;99.90
10848;DHT22;5477;48.806;9.154;2023-10-09T01:34:45;12.80;99.90
10848;DHT22;5477;48.806;9.154;2023-10-09T01:37:17;12.80;99.90
10848;DHT22;5477;48.806;9.154;2023-10-09T01:39:49;12.80;99.90
10848;DHT22;5477;48.806;9.154;2023-10-09T01:42:19;12.80;99.90
10848;DHT22;5477;48.806;9.154;2023-10-09T01:44:54;12.90;99.90
10848;DHT22;5477;48.806;9.154;2023-10-09T01:47:25;12.90;99.90
10848;DHT22;5477;48.806;9.154;2023-10-09T01:49:59;12.90;99.90
10848;DHT22;5477;48.806;9.154;2023-10-09T01:52:31;12.90;99.90
10848;DHT22;5477;48.806;9.154;2023-10-09T01:55:05;12.90;99.90
10848;DHT22;5477;48.806;9.154;2023-10-09T01:57:54;12.80;99.90
10848;DHT22;5477;48.806;9.154;2023-10-09T02:00:25;12.80;99.90
10848;DHT22;5477;48.806;9.154;2023-10-09T02:02:56;12.90;99.90
10848;DHT22;5477;48.806;9.154;2023-10-09T02:05:30;12.90;99.90
10848;DHT22;5477;48.806;9.154;2023-10-09T02:08:01;12.90;99.90
10848;DHT22;5477;48.806;9.154;2023-10-09T02:10:34;13.00;99.90
10848;DHT22;5477;48.806;9.154;2023-10-09T02:13:06;13.00;99.90
10848;DHT22;5477;48.806;9.154;2023-10-09T02:15:37;13.00;99.90
10848;DHT22;5477;48.806;9.154;2023-10-09T02:18:14;13.00;99.90
10848;DHT22;5477;48.806;9.154;2023-10-09T02:20:52;13.10;99.90
10848;DHT22;5477;48.806;9.154;2023-10-09T02:23:28;13.10;99.90
10848;DHT22;5477;48.806;9.154;2023-10-09T02:26:07;13.10;99.90
10848;DHT22;5477;48.806;9.154;2023-10-09T02:28:36;13.10;99.90
10848;DHT22;5477;48.806;9.154;2023-10-09T02:31:10;13.10;99.90
10848;DHT22;5477;48.806;9.154;2023-10-09T02:33:39;13.10;99.90
10848;DHT22;5477;48.806;9.154;2023-10-09T02:36:08;13.10;99.90
10848;DHT22;5477;48.806;9.154;2023-10-09T02:38:36;13.20;99.90
10848;DHT22;5477;48.806;9.154;2023-10-09T02:41:09;13.20;99.90
10848;DHT22;5477;48.806;9.154;2023-10-09T02:43:47;13.20;99.90
10848;DHT22;5477;48.806;9.154;2023-10-09T02:46:18;13.20;99.90
10848;DHT22;5477;48.806;9.154;2023-10-09T02:48:47;13.30;99.90
10848;DHT22;5477;48.806;9.154;2023-10-09T02:51:18;13.30;99.90
10848;DHT22;5477;48.806;9.154;2023-10-09T02:54:00;13.30;99.90
10848;DHT22;5477;48.806;9.154;2023-10-09T02:56:46;13.30;99.90
10848;DHT22;5477;48.806;9.154;2023-10-09T02:59:22;13.30;99.90
10848;DHT22;5477;48.806;9.154;2023-10-09T03:01:50;13.30;99.90
10848;DHT22;5477;48.806;9.154;2023-10-09T03:04:19;13.30;99.90
10848;DHT22;5477;48.806;9.154;2023-10-09T03:06:51;13.20;99.90
10848;DHT22;5477;48.806;9.154;2023-10-09T03:09:20;13.30;99.90
10848;DHT22;5477;48.806;9.154;2023-10-09T03:11:57;13.20;99.90
10848;DHT22;5477;48.806;9.154;2023-10-09T03:14:30;13.30;99.90
10848;DHT22;5477;48.806;9.154;2023-10-09T03:16:58;13.30;99.90
10848;DHT22;5477;48.806;9.154;2023-10-09T03:19:28;13.30;99.90
10848;DHT22;5477;48.806;9.154;2023-10-09T03:21:56;13.30;99.90
10848;DHT22;5477;48.806;9.154;2023-10-09T03:24:25;13.30;99.90
10848;DHT22;5477;48.806;9.154;2023-10-09T03:26:56;13.30;99.90
10848;DHT22;5477;48.806;9.154;2023-10-09T03:29:24;13.40;99.90
10848;DHT22;5477;48.806;9.154;2023-10-09T03:31:54;13.40;99.90
10848;DHT22;5477;48.806;9.154;2023-10-09T03:34:23;13.50;99.90
10848;DHT22;5477;48.806;9.154;2023-10-09T03:36:52;13.50;99.90
10848;DHT22;5477;48.806;9.154;2023-10-09T03:39:30;13.50;99.90
10848;DHT22;5477;48.806;9.154;2023-10-09T03:42:07;13.50;99.90
10848;DHT22;5477;48.806;9.154;2023-10-09T03:44:38;13.50;99.90
10848;DHT22;5477;48.806;9.154;2023-10-09T03:47:10;13.50;99.90
10848;DHT22;5477;48.806;9.154;2023-10-09T03:49:38;13.50;99.90
10848;DHT22;5477;48.806;9.154;2023-10-09T03:52:06;13.50;99.90
10848;DHT22;5477;48.806;9.154;2023-10-09T03:54:36;13.50;99.90
10848;DHT22;5477;48.806;9.154;2023-10-09T03:57:06;13.50;99.90
10848;DHT22;5477;48.806;9.154;2023-10-09T03:59:34;13.60;99.90
10848;DHT22;5477;48.806;9.154;2023-10-09T04:02:04;13.60;99.90
10848;DHT22;5477;48.806;9.154;2023-10-09T04:04:32;13.60;99.90
10848;DHT22;5477;48.806;9.154;2023-10-09T04:07:00;13.60;99.90
10848;DHT22;5477;48.806;9.154;2023-10-09T04:09:29;13.60;99.90
10848;DHT22;5477;48.806;9.154;2023-10-09T04:12:07;13.60;99.90
10848;DHT22;5477;48.806;9.154;2023-10-09T04:14:50;13.60;99.90
10848;DHT22;5477;48.806;9.154;2023-10-09T04:17:22;13.60;99.90
10848;DHT22;5477;48.806;9.154;2023-10-09T04:20:03;13.50;99.90
10848;DHT22;5477;48.806;9.154;2023-10-09T04:22:50;13.60;99.90
10848;DHT22;5477;48.806;9.154;2023-10-09T04:25:19;13.50;99.90
10848;DHT22;5477;48.806;9.154;2023-10-09T04:27:56;13.50;99.90
10848;DHT22;5477;48.806;9.154;2023-10-09T04:30:36;13.50;99.90
10848;DHT22;5477;48.806;9.154;2023-10-09T04:33:07;13.50;99.90
10848;DHT22;5477;48.806;9.154;2023-10-09T04:35:55;13.60;99.90
10848;DHT22;5477;48.806;9.154;2023-10-09T04:38:37;13.50;99.90
10848;DHT22;5477;48.806;9.154;2023-10-09T04:41:06;13.50;99.90
10848;DHT22;5477;48.806;9.154;2023-10-09T04:43:36;13.50;99.90
10848;DHT22;5477;48.806;9.154;2023-10-09T04:46:10;13.60;99.90
10848;DHT22;5477;48.806;9.154;2023-10-09T04:48:40;13.50;99.90
10848;DHT22;5477;48.806;9.154;2023-10-09T04:51:14;13.50;99.90
10848;DHT22;5477;48.806;9.154;2023-10-09T04:53:48;13.50;99.90
10848;DHT22;5477;48.806;9.154;2023-10-09T04:56:27;13.50;99.90
10848;DHT22;5477;48.806;9.154;2023-10-09T04:59:00;13.50;99.90
10848;DHT22;5477;48.806;9.154;2023-10-09T05:01:34;13.40;99.90
10848;DHT22;5477;48.806;9.154;2023-10-09T05:04:10;13.40;99.90
10848;DHT22;5477;48.806;9.154;2023-10-09T05:06:54;13.40;99.90
10848;DHT22;5477;48.806;9.154;2023-10-09T05:09:22;13.40;99.90
10848;DHT22;5477;48.806;9.154;2023-10-09T05:11:51;13.40;99.90
10848;DHT22;5477;48.806;9.154;2023-10-09T05:14:22;13.40;99.90
10848;DHT22;5477;48.806;9.154;2023-10-09T05:17:07;13.40;99.90
10848;DHT22;5477;48.806;9.154;2023-10-09T05:19:43;13.50;99.90
10848;DHT22;5477;48.806;9.154;2023-10-09T05:22:22;13.40;99.90
10848;DHT22;5477;48.806;9.154;2023-10-09T05:25:03;13.40;99.90
10848;DHT22;5477;48.806;9.154;2023-10-09T05:27:42;13.30;99.90
10848;DHT22;5477;48.806;9.154;2023-10-09T05:30:18;13.30;99.90
10848;DHT22;5477;48.806;9.154;2023-10-09T05:32:56;13.30;99.90
10848;DHT22;5477;48.806;9.154;2023-10-09T05:35:47;13.30;99.90
10848;DHT22;5477;48.806;9.154;2023-10-09T05:38:32;13.30;99.90
10848;DHT22;5477;48.806;9.154;2023-10-09T05:41:02;13.30;99.90
10848;DHT22;5477;48.806;9.154;2023-10-09T05:43:44;13.30;99.90
10848;DHT22;5477;48.806;9.154;2023-10-09T05:46:31;13.30;99.90
10848;DHT22;5477;48.806;9.154;2023-10-09T05:49:03;13.20;99.90
10848;DHT22;5477;48.806;9.154;2023-10-09T05:51:46;13.30;99.90
10848;DHT22;5477;48.806;9.154;2023-10-09T05:54:20;13.30;99.90
10848;DHT22;5477;48.806;9.154;2023-10-09T05:57:10;13.30;99.90
10848;DHT22;5477;48.806;9.154;2023-10-09T05:59:56;13.40;99.90
10848;DHT22;5477;48.806;9.154;2023-10-09T06:02:44;13.40;99.90
10848;DHT22;5477;48.806;9.154;2023-10-09T06:05:30;13.40;99.90
10848;DHT22;5477;48.806;9.154;2023-10-09T06:08:18;13.40;99.90
10848;DHT22;5477;48.806;9.154;2023-10-09T06:10:52;13.50;99.90
10848;DHT22;5477;48.806;9.154;2023-10-09T06:13:34;13.50;99.90
10848;DHT22;5477;48.806;9.154;2023-10-09T06:16:12;13.50;99.90
10848;DHT22;5477;48.806;9.154;2023-10-09T06:19:10;13.60;99.90
10848;DHT22;5477;48.806;9.154;2023-10-09T06:21:54;13.60;99.90
10848;DHT22;5477;48.806;9.154;2023-10-09T06:24:40;13.70;99.90
10848;DHT22;5477;48.806;9.154;2023-10-09T06:27:10;13.70;99.90
10848;DHT22;5477;48.806;9.154;2023-10-09T06:29:51;13.80;99.90
10848;DHT22;5477;48.806;9.154;2023-10-09T06:32:18;13.80;99.90
10848;DHT22;5477;48.806;9.154;2023-10-09T06:35:02;13.90;99.90
10848;DHT22;5477;48.806;9.154;2023-10-09T06:37:44;13.90;99.90
10848;DHT22;5477;48.806;9.154;2023-10-09T06:40:31;13.90;99.90
10848;DHT22;5477;48.806;9.154;2023-10-09T06:43:17;14.00;99.90
10848;DHT22;5477;48.806;9.154;2023-10-09T06:45:54;14.00;99.90
10848;DHT22;5477;48.806;9.154;2023-10-09T06:48:25;14.00;99.90
10848;DHT22;5477;48.806;9.154;2023-10-09T06:51:10;14.10;99.90
10848;DHT22;5477;48.806;9.154;2023-10-09T06:53:43;14.20;99.90
10848;DHT22;5477;48.806;9.154;2023-10-09T06:56:31;14.20;99.90
10848;DHT22;5477;48.806;9.154;2023-10-09T06:59:13;14.30;99.90
10848;DHT22;5477;48.806;9.154;2023-10-09T07:01:48;14.30;99.90
10848;DHT22;5477;48.806;9.154;2023-10-09T07:04:38;14.30;99.90
10848;DHT22;5477;48.806;9.154;2023-10-09T07:07:16;14.30;99.90
10848;DHT22;5477;48.806;9.154;2023-10-09T07:09:47;14.40;99.90
10848;DHT22;5477;48.806;9.154;2023-10-09T07:12:29;14.50;99.90
10848;DHT22;5477;48.806;9.154;2023-10-09T07:15:00;14.60;99.90
10848;DHT22;5477;48.806;9.154;2023-10-09T07:17:57;14.60;99.90
10848;DHT22;5477;48.806;9.154;2023-10-09T07:20:45;14.70;99.90
10848;DHT22;5477;48.806;9.154;2023-10-09T07:23:27;14.80;99.90
10848;DHT22;5477;48.806;9.154;2023-10-09T07:26:04;14.80;99.90
10848;DHT22;5477;48.806;9.154;2023-10-09T07:28:46;14.90;99.90
10848;DHT22;5477;48.806;9.154;2023-10-09T07:31:20;14.90;99.90
10848;DHT22;5477;48.806;9.154;2023-10-09T07:34:06;15.00;99.90
10848;DHT22;5477;48.806;9.154;2023-10-09T07:36:55;15.10;99.90
10848;DHT22;5477;48.806;9.154;2023-10-09T07:39:25;15.20;99.90
10848;DHT22;5477;48.806;9.154;2023-10-09T07:42:04;15.20;99.90
10848;DHT22;5477;48.806;9.154;2023-10-09T07:44:46;15.40;99.90
10848;DHT22;5477;48.806;9.154;2023-10-09T07:47:19;15.40;99.90
10848;DHT22;5477;48.806;9.154;2023-10-09T07:49:55;15.40;99.90
10848;DHT22;5477;48.806;9.154;2023-10-09T07:52:26;15.50;99.90
10848;DHT22;5477;48.806;9.154;2023-10-09T07:54:56;15.50;99.90
10848;DHT22;5477;48.806;9.154;2023-10-09T07:57:32;15.60;99.90
10848;DHT22;5477;48.806;9.154;2023-10-09T08:00:07;15.70;99.90
10848;DHT22;5477;48.806;9.154;2023-10-09T08:02:49;15.80;99.90
10848;DHT22;5477;48.806;9.154;2023-10-09T08:05:27;15.90;99.90
10848;DHT22;5477;48.806;9.154;2023-10-09T08:08:01;16.00;99.90
10848;DHT22;5477;48.806;9.154;2023-10-09T08:11:08;16.00;99.90
10848;DHT22;5477;48.806;9.154;2023-10-09T08:14:03;16.20;99.90
10848;DHT22;5477;48.806;9.154;2023-10-09T08:16:33;16.30;99.90
10848;DHT22;5477;48.806;9.154;2023-10-09T08:19:03;16.40;99.90
10848;DHT22;5477;48.806;9.154;2023-10-09T08:21:55;16.50;99.90
10848;DHT22;5477;48.806;9.154;2023-10-09T08:25:03;16.60;99.90
10848;DHT22;5477;48.806;9.154;2023-10-09T08:27:32;16.80;99.90
10848;DHT22;5477;48.806;9.154;2023-10-09T08:30:20;16.90;99.90
10848;DHT22;5477;48.806;9.154;2023-10-09T08:33:11;17.00;99.90
10848;DHT22;5477;48.806;9.154;2023-10-09T08:35:59;17.10;99.90
10848;DHT22;5477;48.806;9.154;2023-10-09T08:38:31;17.20;99.90
10848;DHT22;5477;48.806;9.154;2023-10-09T08:41:10;17.30;99.90
10848;DHT22;5477;48.806;9.154;2023-10-09T08:43:49;17.40;99.90
10848;DHT22;5477;48.806;9.154;2023-10-09T08:46:20;17.50;99.90
10848;DHT22;5477;48.806;9.154;2023-10-09T08:48:50;17.60;99.90
10848;DHT22;5477;48.806;9.154;2023-10-09T08:51:18;17.60;99.90
10848;DHT22;5477;48.806;9.154;2023-10-09T08:53:47;17.70;99.90
10848;DHT22;5477;48.806;9.154;2023-10-09T08:56:17;17.80;99.90
10848;DHT22;5477;48.806;9.154;2023-10-09T08:58:52;17.80;99.90
10848;DHT22;5477;48.806;9.154;2023-10-09T09:01:22;17.90;99.90
10848;DHT22;5477;48.806;9.154;2023-10-09T09:03:53;17.90;99.90
10848;DHT22;5477;48.806;9.154;2023-10-09T09:06:23;18.00;99.90
10848;DHT22;5477;48.806;9.154;2023-10-09T09:08:51;18.10;99.90
10848;DHT22;5477;48.806;9.154;2023-10-09T09:11:22;18.20;99.90
10848;DHT22;5477;48.806;9.154;2023-10-09T09:14:02;18.30;99.90
10848;DHT22;5477;48.806;9.154;2023-10-09T09:16:41;18.40;99.90
10848;DHT22;5477;48.806;9.154;2023-10-09T09:19:15;18.50;99.90
10848;DHT22;5477;48.806;9.154;2023-10-09T09:21:49;18.70;99.90
10848;DHT22;5477;48.806;9.154;2023-10-09T09:24:22;18.80;99.90
10848;DHT22;5477;48.806;9.154;2023-10-09T09:27:01;18.90;99.90
10848;DHT22;5477;48.806;9.154;2023-10-09T09:29:41;19.00;99.90
10848;DHT22;5477;48.806;9.154;2023-10-09T09:32:27;19.10;99.90
10848;DHT22;5477;48.806;9.154;2023-10-09T09:35:03;19.20;99.90
10848;DHT22;5477;48.806;9.154;2023-10-09T09:37:33;19.30;99.90
10848;DHT22;5477;48.806;9.154;2023-10-09T09:40:17;19.40;99.90
10848;DHT22;5477;48.806;9.154;2023-10-09T09:43:02;19.50;99.90
10848;DHT22;5477;48.806;9.154;2023-10-09T09:45:35;19.70;99.90
10848;DHT22;5477;48.806;9.154;2023-10-09T09:48:04;19.80;99.90
10848;DHT22;5477;48.806;9.154;2023-10-09T09:50:33;20.00;99.90
10848;DHT22;5477;48.806;9.154;2023-10-09T09:53:10;20.10;99.90
10848;DHT22;5477;48.806;9.154;2023-10-09T09:55:52;20.20;99.90
10848;DHT22;5477;48.806;9.154;2023-10-09T09:58:25;20.30;99.90
10848;DHT22;5477;48.806;9.154;2023-10-09T10:01:03;20.40;99.90
10848;DHT22;5477;48.806;9.154;2023-10-09T10:03:45;20.50;99.90
10848;DHT22;5477;48.806;9.154;2023-10-09T10:06:18;20.60;99.90
10848;DHT22;5477;48.806;9.154;2023-10-09T10:08:48;20.70;99.90
10848;DHT22;5477;48.806;9.154;2023-10-09T10:11:43;20.90;99.90
10848;DHT22;5477;48.806;9.154;2023-10-09T10:14:19;21.10;99.90
10848;DHT22;5477;48.806;9.154;2023-10-09T10:17:04;21.30;99.90
10848;DHT22;5477;48.806;9.154;2023-10-09T10:19:59;21.50;99.90
10848;DHT22;5477;48.806;9.154;2023-10-09T10:22:28;21.80;99.90
10848;DHT22;5477;48.806;9.154;2023-10-09T10:24:57;21.90;99.90
10848;DHT22;5477;48.806;9.154;2023-10-09T10:27:29;22.10;99.90
10848;DHT22;5477;48.806;9.154;2023-10-09T10:30:28;22.10;99.90
10848;DHT22;5477;48.806;9.154;2023-10-09T10:33:05;22.10;99.90
10848;DHT22;5477;48.806;9.154;2023-10-09T10:35:43;22.30;99.60
10848;DHT22;5477;48.806;9.154;2023-10-09T10:38:23;22.30;99.30
10848;DHT22;5477;48.806;9.154;2023-10-09T10:40:51;22.30;99.00
10848;DHT22;5477;48.806;9.154;2023-10-09T10:43:25;22.30;99.00
10848;DHT22;5477;48.806;9.154;2023-10-09T10:46:03;22.30;99.10
10848;DHT22;5477;48.806;9.154;2023-10-09T10:48:42;22.50;99.10
10848;DHT22;5477;48.806;9.154;2023-10-09T10:51:14;22.50;98.70
10848;DHT22;5477;48.806;9.154;2023-10-09T10:53:52;22.60;98.00
10848;DHT22;5477;48.806;9.154;2023-10-09T10:56:24;22.60;97.40
10848;DHT22;5477;48.806;9.154;2023-10-09T10:59:02;22.60;97.30
10848;DHT22;5477;48.806;9.154;2023-10-09T11:01:40;22.60;97.20
10848;DHT22;5477;48.806;9.154;2023-10-09T11:04:45;22.60;97.20
10848;DHT22;5477;48.806;9.154;2023-10-09T11:07:22;22.60;96.00
10848;DHT22;5477;48.806;9.154;2023-10-09T11:09:55;22.60;95.70
10848;DHT22;5477;48.806;9.154;2023-10-09T11:12:43;22.70;95.80
10848;DHT22;5477;48.806;9.154;2023-10-09T11:15:33;22.90;93.20
10848;DHT22;5477;48.806;9.154;2023-10-09T11:18:12;23.00;91.70
10848;DHT22;5477;48.806;9.154;2023-10-09T11:20:50;23.20;91.40
10848;DHT22;5477;48.806;9.154;2023-10-09T11:23:44;23.40;90.40
10848;DHT22;5477;48.806;9.154;2023-10-09T11:26:26;23.40;86.40
10848;DHT22;5477;48.806;9.154;2023-10-09T11:29:07;23.50;83.30
10848;DHT22;5477;48.806;9.154;2023-10-09T11:31:57;23.50;80.30
10848;DHT22;5477;48.806;9.154;2023-10-09T11:34:27;23.50;78.70
10848;DHT22;5477;48.806;9.154;2023-10-09T11:37:01;23.50;75.50
10848;DHT22;5477;48.806;9.154;2023-10-09T11:39:31;23.40;74.50
10848;DHT22;5477;48.806;9.154;2023-10-09T11:42:04;23.30;73.30
10848;DHT22;5477;48.806;9.154;2023-10-09T11:44:39;23.20;73.00
10848;DHT22;5477;48.806;9.154;2023-10-09T11:47:07;23.30;70.60
10848;DHT22;5477;48.806;9.154;2023-10-09T11:50:00;23.30;69.10
10848;DHT22;5477;48.806;9.154;2023-10-09T11:52:56;23.20;69.00
10848;DHT22;5477;48.806;9.154;2023-10-09T11:55:36;23.10;70.80
10848;DHT22;5477;48.806;9.154;2023-10-09T11:58:04;23.10;73.40
10848;DHT22;5477;48.806;9.154;2023-10-09T12:00:33;23.00;74.70
10848;DHT22;5477;48.806;9.154;2023-10-09T12:03:12;23.00;74.00
10848;DHT22;5477;48.806;9.154;2023-10-09T12:05:41;23.00;74.60
10848;DHT22;5477;48.806;9.154;2023-10-09T12:08:14;23.00;74.60
10848;DHT22;5477;48.806;9.154;2023-10-09T12:10:43;23.00;76.40
10848;DHT22;5477;48.806;9.154;2023-10-09T12:13:14;23.00;73.50
10848;DHT22;5477;48.806;9.154;2023-10-09T12:15:43;23.10;69.80
10848;DHT22;5477;48.806;9.154;2023-10-09T12:18:13;23.30;66.70
10848;DHT22;5477;48.806;9.154;2023-10-09T12:20:45;23.40;63.20
10848;DHT22;5477;48.806;9.154;2023-10-09T12:23:20;23.60;62.50
10848;DHT22;5477;48.806;9.154;2023-10-09T12:25:49;23.70;61.00
10848;DHT22;5477;48.806;9.154;2023-10-09T12:28:17;23.90;61.60
10848;DHT22;5477;48.806;9.154;2023-10-09T12:30:47;24.10;63.90
10848;DHT22;5477;48.806;9.154;2023-10-09T12:33:18;24.30;65.00
10848;DHT22;5477;48.806;9.154;2023-10-09T12:35:47;24.60;60.70
10848;DHT22;5477;48.806;9.154;2023-10-09T12:38:15;24.90;59.60
10848;DHT22;5477;48.806;9.154;2023-10-09T12:40:47;25.10;60.40
10848;DHT22;5477;48.806;9.154;2023-10-09T12:43:18;25.30;59.70
10848;DHT22;5477;48.806;9.154;2023-10-09T12:45:48;25.50;58.40
10848;DHT22;5477;48.806;9.154;2023-10-09T12:48:16;25.60;58.80
10848;DHT22;5477;48.806;9.154;2023-10-09T12:50:44;25.60;59.70
10848;DHT22;5477;48.806;9.154;2023-10-09T12:53:12;25.60;54.30
10848;DHT22;5477;48.806;9.154;2023-10-09T12:55:45;25.50;52.50
10848;DHT22;5477;48.806;9.154;2023-10-09T12:58:14;25.40;50.60
10848;DHT22;5477;48.806;9.154;2023-10-09T13:00:43;25.40;49.20
10848;DHT22;5477;48.806;9.154;2023-10-09T13:03:16;25.30;49.70
10848;DHT22;5477;48.806;9.154;2023-10-09T13:05:47;25.20;49.70
10848;DHT22;5477;48.806;9.154;2023-10-09T13:08:23;25.10;51.50
10848;DHT22;5477;48.806;9.154;2023-10-09T13:11:02;25.20;49.40
10848;DHT22;5477;48.806;9.154;2023-10-09T13:13:39;25.20;48.00
10848;DHT22;5477;48.806;9.154;2023-10-09T13:16:09;25.30;48.50
10848;DHT22;5477;48.806;9.154;2023-10-09T13:18:40;25.50;49.10
10848;DHT22;5477;48.806;9.154;2023-10-09T13:21:08;25.60;48.30
10848;DHT22;5477;48.806;9.154;2023-10-09T13:23:36;26.00;49.10
10848;DHT22;5477;48.806;9.154;2023-10-09T13:26:07;26.60;48.80
10848;DHT22;5477;48.806;9.154;2023-10-09T13:29:00;27.00;46.90
10848;DHT22;5477;48.806;9.154;2023-10-09T13:31:30;27.20;45.50
10848;DHT22;5477;48.806;9.154;2023-10-09T13:34:01;27.40;42.40
10848;DHT22;5477;48.806;9.154;2023-10-09T13:36:38;27.70;40.90
10848;DHT22;5477;48.806;9.154;2023-10-09T13:39:07;27.70;39.30
10848;DHT22;5477;48.806;9.154;2023-10-09T13:41:51;28.10;39.50
10848;DHT22;5477;48.806;9.154;2023-10-09T13:44:27;28.00;39.80
10848;DHT22;5477;48.806;9.154;2023-10-09T13:46:55;28.40;39.10
10848;DHT22;5477;48.806;9.154;2023-10-09T13:49:24;28.80;38.80
10848;DHT22;5477;48.806;9.154;2023-10-09T13:51:57;29.10;36.00
10848;DHT22;5477;48.806;9.154;2023-10-09T13:54:26;29.10;36.50
10848;DHT22;5477;48.806;9.154;2023-10-09T13:57:06;29.50;36.80
10848;DHT22;5477;48.806;9.154;2023-10-09T13:59:36;29.70;36.00
10848;DHT22;5477;48.806;9.154;2023-10-09T14:02:09;29.80;35.40
10848;DHT22;5477;48.806;9.154;2023-10-09T14:04:44;29.70;35.10
10848;DHT22;5477;48.806;9.154;2023-10-09T14:07:12;29.40;35.90
10848;DHT22;5477;48.806;9.154;2023-10-09T14:09:44;28.90;35.70
10848;DHT22;5477;48.806;9.154;2023-10-09T14:12:23;28.60;36.20
10848;DHT22;5477;48.806;9.154;2023-10-09T14:14:53;28.30;36.10
10848;DHT22;5477;48.806;9.154;2023-10-09T14:17:22;28.20;36.80
10848;DHT22;5477;48.806;9.154;2023-10-09T14:19:53;28.10;37.80
10848;DHT22;5477;48.806;9.154;2023-10-09T14:22:23;28.00;38.50
10848;DHT22;5477;48.806;9.154;2023-10-09T14:24:51;27.70;38.70
10848;DHT22;5477;48.806;9.154;2023-10-09T14:27:23;27.50;38.90
10848;DHT22;5477;48.806;9.154;2023-10-09T14:29:55;27.30;39.50
10848;DHT22;5477;48.806;9.154;2023-10-09T14:32:26;26.90;40.40
10848;DHT22;5477;48.806;9.154;2023-10-09T14:34:56;26.70;40.50
10848;DHT22;5477;48.806;9.154;2023-10-09T14:37:28;26.50;40.50
10848;DHT22;5477;48.806;9.154;2023-10-09T14:39:56;26.40;41.10
10848;DHT22;5477;48.806;9.154;2023-10-09T14:42:25;26.30;41.30
10848;DHT22;5477;48.806;9.154;2023-10-09T14:44:56;26.30;42.00
10848;DHT22;5477;48.806;9.154;2023-10-09T14:47:24;26.20;41.50
10848;DHT22;5477;48.806;9.154;2023-10-09T14:49:52;26.20;42.30
10848;DHT22;5477;48.806;9.154;2023-10-09T14:52:23;26.10;42.40
10848;DHT22;5477;48.806;9.154;2023-10-09T14:54:51;26.10;43.00
10848;DHT22;5477;48.806;9.154;2023-10-09T14:57:19;25.90;43.30
10848;DHT22;5477;48.806;9.154;2023-10-09T14:59:47;25.80;43.40
10848;DHT22;5477;48.806;9.154;2023-10-09T15:02:17;25.80;43.40
10848;DHT22;5477;48.806;9.154;2023-10-09T15:04:45;25.70;43.30
10848;DHT22;5477;48.806;9.154;2023-10-09T15:07:13;25.70;44.20
10848;DHT22;5477;48.806;9.154;2023-10-09T15:10:04;25.60;44.40
10848;DHT22;5477;48.806;9.154;2023-10-09T15:12:32;25.50;44.90
10848;DHT22;5477;48.806;9.154;2023-10-09T15:15:07;25.40;44.80
10848;DHT22;5477;48.806;9.154;2023-10-09T15:17:39;25.30;45.80
10848;DHT22;5477;48.806;9.154;2023-10-09T15:20:11;25.30;47.10
10848;DHT22;5477;48.806;9.154;2023-10-09T15:22:41;25.20;46.80
10848;DHT22;5477;48.806;9.154;2023-10-09T15:25:10;25.10;48.10
10848;DHT22;5477;48.806;9.154;2023-10-09T15:27:42;25.00;48.70
10848;DHT22;5477;48.806;9.154;2023-10-09T15:30:11;24.90;50.10
10848;DHT22;5477;48.806;9.154;2023-10-09T15:32:43;24.70;51.80
10848;DHT22;5477;48.806;9.154;2023-10-09T15:35:11;24.60;52.80
10848;DHT22;5477;48.806;9.154;2023-10-09T15:37:40;24.50;53.30
10848;DHT22;5477;48.806;9.154;2023-10-09T15:40:10;24.30;55.50
10848;DHT22;5477;48.806;9.154;2023-10-09T15:42:42;24.10;54.80
10848;DHT22;5477;48.806;9.154;2023-10-09T15:45:16;24.00;56.10
10848;DHT22;5477;48.806;9.154;2023-10-09T15:47:45;23.70;56.00
10848;DHT22;5477;48.806;9.154;2023-10-09T15:50:13;23.60;56.30
10848;DHT22;5477;48.806;9.154;2023-10-09T15:52:41;23.50;56.40
10848;DHT22;5477;48.806;9.154;2023-10-09T15:55:09;23.40;56.10
10848;DHT22;5477;48.806;9.154;2023-10-09T15:57:41;23.30;55.70
10848;DHT22;5477;48.806;9.154;2023-10-09T16:00:10;23.30;56.60
10848;DHT22;5477;48.806;9.154;2023-10-09T16:02:47;23.10;57.70
10848;DHT22;5477;48.806;9.154;2023-10-09T16:05:15;23.10;58.30
10848;DHT22;5477;48.806;9.154;2023-10-09T16:07:44;23.00;58.80
10848;DHT22;5477;48.806;9.154;2023-10-09T16:10:12;22.90;61.70
10848;DHT22;5477;48.806;9.154;2023-10-09T16:12:41;22.80;63.80
10848;DHT22;5477;48.806;9.154;2023-10-09T16:15:10;22.60;66.80
10848;DHT22;5477;48.806;9.154;2023-10-09T16:17:41;22.30;67.60
10848;DHT22;5477;48.806;9.154;2023-10-09T16:20:12;22.10;67.80
10848;DHT22;5477;48.806;9.154;2023-10-09T16:22:49;21.90;69.00
10848;DHT22;5477;48.806;9.154;2023-10-09T16:25:17;21.70;70.20
10848;DHT22;5477;48.806;9.154;2023-10-09T16:27:48;21.60;70.90
10848;DHT22;5477;48.806;9.154;2023-10-09T16:30:17;21.50;72.70
10848;DHT22;5477;48.806;9.154;2023-10-09T16:32:47;21.30;73.80